sensor_id;sensor_type;location;lat;lon;timestamp;temperature;humidity
25616;DHT22;13482;48.234;13.006;2023-06-22T00:00:26;23.10;64.40
25616;DHT22;13482;48.234;13.006;2023-06-22T00:02:53;23.10;64.40
25616;DHT22;13482;48.234;13.006;2023-06-22T00:05:21;23.00;64.40
25616;DHT22;13482;48.234;13.006;2023-06-22T00:07:48;23.00;64.40
25616;DHT22;13482;48.234;13.006;2023-06-22T00:10:16;23.00;64.50
25616;DHT22;13482;48.234;13.006;2023-06-22T00:12:43;22.90;64.70
25616;DHT22;13482;48.234;13.006;2023-06-22T00:15:10;22.90;64.90
25616;DHT22;13482;48.234;13.006;2023-06-22T00:17:38;22.90;64.90
25616;DHT22;13482;48.234;13.006;2023-06-22T00:20:05;22.90;65.00
25616;DHT22;13482;48.234;13.006;2023-06-22T00:22:35;22.90;65.10
25616;DHT22;13482;48.234;13.006;2023-06-22T00:25:08;22.80;65.10
25616;DHT22;13482;48.234;13.006;2023-06-22T00:27:36;22.80;65.30
25616;DHT22;13482;48.234;13.006;2023-06-22T00:30:04;22.80;65.10
25616;DHT22;13482;48.234;13.006;2023-06-22T00:32:31;22.80;65.20
25616;DHT22;13482;48.234;13.006;2023-06-22T00:34:59;22.80;65.50
25616;DHT22;13482;48.234;13.006;2023-06-22T00:37:27;22.70;65.60
25616;DHT22;13482;48.234;13.006;2023-06-22T00:39:56;22.70;65.90
25616;DHT22;13482;48.234;13.006;2023-06-22T00:42:23;22.70;66.00
25616;DHT22;13482;48.234;13.006;2023-06-22T00:44:51;22.70;66.10
25616;DHT22;13482;48.234;13.006;2023-06-22T00:47:18;22.70;66.20
25616;DHT22;13482;48.234;13.006;2023-06-22T00:49:47;22.70;66.20
25616;DHT22;13482;48.234;13.006;2023-06-22T00:52:15;22.70;66.40
25616;DHT22;13482;48.234;13.006;2023-06-22T00:54:48;22.70;66.40
25616;DHT22;13482;48.234;13.006;2023-06-22T00:57:17;22.60;66.60
25616;DHT22;13482;48.234;13.006;2023-06-22T00:59:46;22.70;66.70
25616;DHT22;13482;48.234;13.006;2023-06-22T01:02:14;22.60;66.70
25616;DHT22;13482;48.234;13.006;2023-06-22T01:04:42;22.60;66.60
25616;DHT22;13482;48.234;13.006;2023-06-22T01:12:44;22.60;66.70
25616;DHT22;13482;48.234;13.006;2023-06-22T01:15:15;22.60;67.10
25616;DHT22;13482;48.234;13.006;2023-06-22T01:17:48;22.60;66.90
25616;DHT22;13482;48.234;13.006;2023-06-22T01:20:17;22.60;66.90
25616;DHT22;13482;48.234;13.006;2023-06-22T01:23:19;22.50;67.00
25616;DHT22;13482;48.234;13.006;2023-06-22T01:26:21;22.50;68.40
25616;DHT22;13482;48.234;13.006;2023-06-22T01:28:56;22.50;67.20
25616;DHT22;13482;48.234;13.006;2023-06-22T01:31:26;22.50;67.00
25616;DHT22;13482;48.234;13.006;2023-06-22T01:34:00;22.50;67.20
25616;DHT22;13482;48.234;13.006;2023-06-22T01:36:31;22.50;67.40
25616;DHT22;13482;48.234;13.006;2023-06-22T01:38:59;22.50;67.30
25616;DHT22;13482;48.234;13.006;2023-06-22T01:41:29;22.40;67.30
25616;DHT22;13482;48.234;13.006;2023-06-22T01:44:00;22.40;67.50
25616;DHT22;13482;48.234;13.006;2023-06-22T01:46:28;22.40;67.40
25616;DHT22;13482;48.234;13.006;2023-06-22T01:48:56;22.40;67.40
25616;DHT22;13482;48.234;13.006;2023-06-22T01:51:24;22.40;67.30
25616;DHT22;13482;48.234;13.006;2023-06-22T01:53:51;22.40;67.50
25616;DHT22;13482;48.234;13.006;2023-06-22T01:56:19;22.40;67.40
25616;DHT22;13482;48.234;13.006;2023-06-22T01:58:54;22.40;67.20
25616;DHT22;13482;48.234;13.006;2023-06-22T02:01:51;22.40;67.40
25616;DHT22;13482;48.234;13.006;2023-06-22T02:04:27;22.40;68.10
25616;DHT22;13482;48.234;13.006;2023-06-22T02:07:00;22.40;67.60
25616;DHT22;13482;48.234;13.006;2023-06-22T02:09:34;22.30;67.30
25616;DHT22;13482;48.234;13.006;2023-06-22T02:12:03;22.30;67.30
25616;DHT22;13482;48.234;13.006;2023-06-22T02:14:33;22.30;67.30
25616;DHT22;13482;48.234;13.006;2023-06-22T02:17:02;22.30;67.40
25616;DHT22;13482;48.234;13.006;2023-06-22T02:19:31;22.30;67.50
25616;DHT22;13482;48.234;13.006;2023-06-22T02:22:00;22.20;67.60
25616;DHT22;13482;48.234;13.006;2023-06-22T02:24:27;22.20;67.60
25616;DHT22;13482;48.234;13.006;2023-06-22T02:26:59;22.20;67.60
25616;DHT22;13482;48.234;13.006;2023-06-22T02:29:27;22.20;67.70
25616;DHT22;13482;48.234;13.006;2023-06-22T02:31:55;22.20;67.60
25616;DHT22;13482;48.234;13.006;2023-06-22T02:34:23;22.10;67.40
25616;DHT22;13482;48.234;13.006;2023-06-22T02:36:50;22.10;67.40
25616;DHT22;13482;48.234;13.006;2023-06-22T02:39:20;22.10;67.50
25616;DHT22;13482;48.234;13.006;2023-06-22T02:41:54;22.10;67.50
25616;DHT22;13482;48.234;13.006;2023-06-22T02:44:21;22.10;67.70
25616;DHT22;13482;48.234;13.006;2023-06-22T02:46:49;22.00;67.50
25616;DHT22;13482;48.234;13.006;2023-06-22T02:49:16;22.00;67.50
25616;DHT22;13482;48.234;13.006;2023-06-22T02:51:48;22.00;67.60
25616;DHT22;13482;48.234;13.006;2023-06-22T02:54:15;22.00;67.70
25616;DHT22;13482;48.234;13.006;2023-06-22T02:56:43;21.90;67.70
25616;DHT22;13482;48.234;13.006;2023-06-22T02:59:11;21.90;68.00
25616;DHT22;13482;48.234;13.006;2023-06-22T03:01:38;21.90;68.10
25616;DHT22;13482;48.234;13.006;2023-06-22T03:04:09;21.90;68.20
25616;DHT22;13482;48.234;13.006;2023-06-22T03:06:37;21.90;68.40
25616;DHT22;13482;48.234;13.006;2023-06-22T03:09:08;21.90;68.40
25616;DHT22;13482;48.234;13.006;2023-06-22T03:11:35;21.90;68.50
25616;DHT22;13482;48.234;13.006;2023-06-22T03:14:03;21.80;68.70
25616;DHT22;13482;48.234;13.006;2023-06-22T03:16:30;21.80;68.80
25616;DHT22;13482;48.234;13.006;2023-06-22T03:18:58;21.90;68.80
25616;DHT22;13482;48.234;13.006;2023-06-22T03:21:28;21.80;68.80
25616;DHT22;13482;48.234;13.006;2023-06-22T03:23:56;21.90;69.10
25616;DHT22;13482;48.234;13.006;2023-06-22T03:26:23;21.80;68.90
25616;DHT22;13482;48.234;13.006;2023-06-22T03:28:54;21.80;68.90
25616;DHT22;13482;48.234;13.006;2023-06-22T03:31:21;21.80;69.00
25616;DHT22;13482;48.234;13.006;2023-06-22T03:33:50;21.80;69.10
25616;DHT22;13482;48.234;13.006;2023-06-22T03:36:18;21.80;69.10
25616;DHT22;13482;48.234;13.006;2023-06-22T03:38:49;21.90;69.20
25616;DHT22;13482;48.234;13.006;2023-06-22T03:41:17;21.90;69.40
25616;DHT22;13482;48.234;13.006;2023-06-22T03:43:44;21.90;69.20
25616;DHT22;13482;48.234;13.006;2023-06-22T03:46:12;21.90;69.20
25616;DHT22;13482;48.234;13.006;2023-06-22T03:48:39;21.90;69.20
25616;DHT22;13482;48.234;13.006;2023-06-22T03:51:06;21.90;69.30
25616;DHT22;13482;48.234;13.006;2023-06-22T03:53:34;21.90;69.40
25616;DHT22;13482;48.234;13.006;2023-06-22T03:56:01;21.90;69.50
25616;DHT22;13482;48.234;13.006;2023-06-22T03:58:29;22.00;69.60
25616;DHT22;13482;48.234;13.006;2023-06-22T04:01:00;22.00;69.60
25616;DHT22;13482;48.234;13.006;2023-06-22T04:03:27;22.00;69.70
25616;DHT22;13482;48.234;13.006;2023-06-22T04:05:55;22.10;69.80
25616;DHT22;13482;48.234;13.006;2023-06-22T04:08:22;22.10;69.70
25616;DHT22;13482;48.234;13.006;2023-06-22T04:10:49;22.20;69.80
25616;DHT22;13482;48.234;13.006;2023-06-22T04:13:17;22.20;69.80
25616;DHT22;13482;48.234;13.006;2023-06-22T04:15:44;22.20;69.80
25616;DHT22;13482;48.234;13.006;2023-06-22T04:18:12;22.30;69.90
25616;DHT22;13482;48.234;13.006;2023-06-22T04:20:40;22.40;70.00
25616;DHT22;13482;48.234;13.006;2023-06-22T04:23:07;22.40;70.00
25616;DHT22;13482;48.234;13.006;2023-06-22T04:25:35;22.50;70.00
25616;DHT22;13482;48.234;13.006;2023-06-22T04:28:02;22.50;70.10
25616;DHT22;13482;48.234;13.006;2023-06-22T04:30:33;22.60;70.00
25616;DHT22;13482;48.234;13.006;2023-06-22T04:33:00;22.70;70.20
25616;DHT22;13482;48.234;13.006;2023-06-22T04:35:28;22.80;70.10
25616;DHT22;13482;48.234;13.006;2023-06-22T04:37:58;22.90;69.90
25616;DHT22;13482;48.234;13.006;2023-06-22T04:40:25;23.00;70.00
25616;DHT22;13482;48.234;13.006;2023-06-22T04:42:53;23.00;69.90
25616;DHT22;13482;48.234;13.006;2023-06-22T04:45:21;23.10;69.90
25616;DHT22;13482;48.234;13.006;2023-06-22T04:47:49;23.20;70.00
25616;DHT22;13482;48.234;13.006;2023-06-22T04:50:16;23.30;70.00
25616;DHT22;13482;48.234;13.006;2023-06-22T04:52:44;23.40;69.90
25616;DHT22;13482;48.234;13.006;2023-06-22T04:55:13;23.50;69.70
25616;DHT22;13482;48.234;13.006;2023-06-22T04:57:49;23.60;69.70
25616;DHT22;13482;48.234;13.006;2023-06-22T05:00:18;23.70;69.80
25616;DHT22;13482;48.234;13.006;2023-06-22T05:02:50;23.80;69.60
25616;DHT22;13482;48.234;13.006;2023-06-22T05:05:19;23.90;69.60
25616;DHT22;13482;48.234;13.006;2023-06-22T05:07:49;24.10;69.70
25616;DHT22;13482;48.234;13.006;2023-06-22T05:10:20;24.20;69.60
25616;DHT22;13482;48.234;13.006;2023-06-22T05:12:47;24.30;69.40
25616;DHT22;13482;48.234;13.006;2023-06-22T05:15:14;24.40;69.50
25616;DHT22;13482;48.234;13.006;2023-06-22T05:17:42;24.60;69.40
25616;DHT22;13482;48.234;13.006;2023-06-22T05:20:13;24.70;69.30
25616;DHT22;13482;48.234;13.006;2023-06-22T05:22:40;24.80;69.30
25616;DHT22;13482;48.234;13.006;2023-06-22T05:25:11;25.00;69.20
25616;DHT22;13482;48.234;13.006;2023-06-22T05:27:40;25.10;69.10
25616;DHT22;13482;48.234;13.006;2023-06-22T05:30:08;25.20;69.10
25616;DHT22;13482;48.234;13.006;2023-06-22T05:32:36;25.40;69.00
25616;DHT22;13482;48.234;13.006;2023-06-22T05:35:04;25.50;69.00
25616;DHT22;13482;48.234;13.006;2023-06-22T05:37:32;25.70;69.00
25616;DHT22;13482;48.234;13.006;2023-06-22T05:40:00;25.80;68.80
25616;DHT22;13482;48.234;13.006;2023-06-22T05:42:27;25.90;68.60
25616;DHT22;13482;48.234;13.006;2023-06-22T05:44:55;26.10;68.50
25616;DHT22;13482;48.234;13.006;2023-06-22T05:47:23;26.20;68.20
25616;DHT22;13482;48.234;13.006;2023-06-22T05:49:50;26.40;68.00
25616;DHT22;13482;48.234;13.006;2023-06-22T05:52:18;26.50;67.90
25616;DHT22;13482;48.234;13.006;2023-06-22T05:54:45;26.70;67.80
25616;DHT22;13482;48.234;13.006;2023-06-22T05:57:13;26.80;67.80
25616;DHT22;13482;48.234;13.006;2023-06-22T05:59:40;26.90;67.60
25616;DHT22;13482;48.234;13.006;2023-06-22T06:02:08;27.10;67.40
25616;DHT22;13482;48.234;13.006;2023-06-22T06:04:35;27.20;67.40
25616;DHT22;13482;48.234;13.006;2023-06-22T06:07:03;27.30;66.90
25616;DHT22;13482;48.234;13.006;2023-06-22T06:09:30;27.50;66.60
25616;DHT22;13482;48.234;13.006;2023-06-22T06:11:58;27.60;66.50
25616;DHT22;13482;48.234;13.006;2023-06-22T06:14:25;27.70;66.30
25616;DHT22;13482;48.234;13.006;2023-06-22T06:16:52;27.80;66.00
25616;DHT22;13482;48.234;13.006;2023-06-22T06:19:20;27.90;65.80
25616;DHT22;13482;48.234;13.006;2023-06-22T06:21:47;28.10;65.60
25616;DHT22;13482;48.234;13.006;2023-06-22T06:24:15;28.20;65.40
25616;DHT22;13482;48.234;13.006;2023-06-22T06:26:42;28.20;65.20
25616;DHT22;13482;48.234;13.006;2023-06-22T06:29:09;28.30;65.00
25616;DHT22;13482;48.234;13.006;2023-06-22T06:31:37;28.40;65.00
25616;DHT22;13482;48.234;13.006;2023-06-22T06:34:04;28.50;64.90
25616;DHT22;13482;48.234;13.006;2023-06-22T06:36:32;28.50;64.90
25616;DHT22;13482;48.234;13.006;2023-06-22T06:38:59;28.60;65.30
25616;DHT22;13482;48.234;13.006;2023-06-22T06:41:27;28.70;64.90
25616;DHT22;13482;48.234;13.006;2023-06-22T06:43:54;28.90;64.90
25616;DHT22;13482;48.234;13.006;2023-06-22T06:46:21;29.00;64.90
25616;DHT22;13482;48.234;13.006;2023-06-22T06:48:49;29.10;64.80
25616;DHT22;13482;48.234;13.006;2023-06-22T06:51:18;29.30;64.70
25616;DHT22;13482;48.234;13.006;2023-06-22T06:53:48;29.40;64.20
25616;DHT22;13482;48.234;13.006;2023-06-22T06:56:18;29.50;64.40
25616;DHT22;13482;48.234;13.006;2023-06-22T06:58:50;29.60;63.90
25616;DHT22;13482;48.234;13.006;2023-06-22T07:01:19;29.70;63.40
25616;DHT22;13482;48.234;13.006;2023-06-22T07:03:48;29.80;63.80
25616;DHT22;13482;48.234;13.006;2023-06-22T07:06:16;29.90;63.70
25616;DHT22;13482;48.234;13.006;2023-06-22T07:08:43;30.10;63.30
25616;DHT22;13482;48.234;13.006;2023-06-22T07:11:11;30.20;63.00
25616;DHT22;13482;48.234;13.006;2023-06-22T07:13:40;30.30;62.80
25616;DHT22;13482;48.234;13.006;2023-06-22T07:16:10;30.40;62.40
25616;DHT22;13482;48.234;13.006;2023-06-22T07:18:41;30.50;62.40
25616;DHT22;13482;48.234;13.006;2023-06-22T07:21:10;30.60;62.10
25616;DHT22;13482;48.234;13.006;2023-06-22T07:23:39;30.60;61.80
25616;DHT22;13482;48.234;13.006;2023-06-22T07:26:12;30.70;61.70
25616;DHT22;13482;48.234;13.006;2023-06-22T07:28:50;30.80;61.80
25616;DHT22;13482;48.234;13.006;2023-06-22T07:31:28;30.90;61.40
25616;DHT22;13482;48.234;13.006;2023-06-22T07:34:00;31.00;61.40
25616;DHT22;13482;48.234;13.006;2023-06-22T07:36:33;31.10;61.40
25616;DHT22;13482;48.234;13.006;2023-06-22T07:39:06;31.20;61.20
25616;DHT22;13482;48.234;13.006;2023-06-22T07:41:38;31.30;61.10
25616;DHT22;13482;48.234;13.006;2023-06-22T07:44:13;31.40;60.90
25616;DHT22;13482;48.234;13.006;2023-06-22T07:46:45;31.50;61.00
25616;DHT22;13482;48.234;13.006;2023-06-22T07:49:18;31.60;60.60
25616;DHT22;13482;48.234;13.006;2023-06-22T07:51:50;31.70;60.70
25616;DHT22;13482;48.234;13.006;2023-06-22T07:54:20;31.80;60.60
25616;DHT22;13482;48.234;13.006;2023-06-22T07:56:51;32.00;60.20
25616;DHT22;13482;48.234;13.006;2023-06-22T07:59:32;32.00;59.90
25616;DHT22;13482;48.234;13.006;2023-06-22T08:02:07;32.10;59.80
25616;DHT22;13482;48.234;13.006;2023-06-22T08:04:41;32.20;59.60
25616;DHT22;13482;48.234;13.006;2023-06-22T08:07:10;32.30;59.50
25616;DHT22;13482;48.234;13.006;2023-06-22T08:09:38;32.40;59.40
25616;DHT22;13482;48.234;13.006;2023-06-22T08:12:07;32.50;59.30
25616;DHT22;13482;48.234;13.006;2023-06-22T08:14:37;32.70;58.90
25616;DHT22;13482;48.234;13.006;2023-06-22T08:17:05;32.80;58.90
25616;DHT22;13482;48.234;13.006;2023-06-22T08:19:32;32.90;58.50
25616;DHT22;13482;48.234;13.006;2023-06-22T08:22:00;33.00;58.80
25616;DHT22;13482;48.234;13.006;2023-06-22T08:24:27;33.10;58.30
25616;DHT22;13482;48.234;13.006;2023-06-22T08:26:57;33.20;58.20
25616;DHT22;13482;48.234;13.006;2023-06-22T08:29:25;33.30;57.90
25616;DHT22;13482;48.234;13.006;2023-06-22T08:31:52;33.40;57.70
25616;DHT22;13482;48.234;13.006;2023-06-22T08:34:19;33.50;57.60
25616;DHT22;13482;48.234;13.006;2023-06-22T08:36:50;33.60;57.30
25616;DHT22;13482;48.234;13.006;2023-06-22T08:39:20;33.70;57.60
25616;DHT22;13482;48.234;13.006;2023-06-22T08:41:48;33.80;57.50
25616;DHT22;13482;48.234;13.006;2023-06-22T08:44:18;34.00;57.20
25616;DHT22;13482;48.234;13.006;2023-06-22T08:46:46;34.10;56.90
25616;DHT22;13482;48.234;13.006;2023-06-22T08:49:17;34.20;56.80
25616;DHT22;13482;48.234;13.006;2023-06-22T08:51:45;34.40;56.90
25616;DHT22;13482;48.234;13.006;2023-06-22T08:54:16;34.50;56.60
25616;DHT22;13482;48.234;13.006;2023-06-22T08:56:43;34.60;56.40
25616;DHT22;13482;48.234;13.006;2023-06-22T08:59:10;34.70;56.20
25616;DHT22;13482;48.234;13.006;2023-06-22T09:01:38;34.80;56.00
25616;DHT22;13482;48.234;13.006;2023-06-22T09:04:05;34.90;56.00
25616;DHT22;13482;48.234;13.006;2023-06-22T09:06:34;35.00;55.80
25616;DHT22;13482;48.234;13.006;2023-06-22T09:09:02;35.10;55.50
25616;DHT22;13482;48.234;13.006;2023-06-22T09:11:30;35.20;55.40
25616;DHT22;13482;48.234;13.006;2023-06-22T09:13:57;35.30;55.30
25616;DHT22;13482;48.234;13.006;2023-06-22T09:16:25;35.40;55.30
25616;DHT22;13482;48.234;13.006;2023-06-22T09:18:52;35.50;55.20
25616;DHT22;13482;48.234;13.006;2023-06-22T09:21:20;35.60;55.20
25616;DHT22;13482;48.234;13.006;2023-06-22T09:23:47;35.70;55.00
25616;DHT22;13482;48.234;13.006;2023-06-22T09:26:19;35.80;54.70
25616;DHT22;13482;48.234;13.006;2023-06-22T09:28:46;36.00;54.30
25616;DHT22;13482;48.234;13.006;2023-06-22T09:31:14;36.00;54.10
25616;DHT22;13482;48.234;13.006;2023-06-22T09:33:43;36.10;54.40
25616;DHT22;13482;48.234;13.006;2023-06-22T09:36:11;36.20;54.20
25616;DHT22;13482;48.234;13.006;2023-06-22T09:38:38;36.30;54.00
25616;DHT22;13482;48.234;13.006;2023-06-22T09:41:06;36.30;54.10
25616;DHT22;13482;48.234;13.006;2023-06-22T09:43:33;36.40;54.00
25616;DHT22;13482;48.234;13.006;2023-06-22T09:46:03;36.50;53.70
25616;DHT22;13482;48.234;13.006;2023-06-22T09:48:31;36.60;53.80
25616;DHT22;13482;48.234;13.006;2023-06-22T09:50:59;36.70;54.00
25616;DHT22;13482;48.234;13.006;2023-06-22T09:53:26;36.80;53.90
25616;DHT22;13482;48.234;13.006;2023-06-22T09:55:54;36.90;53.60
25616;DHT22;13482;48.234;13.006;2023-06-22T09:58:21;37.00;53.50
25616;DHT22;13482;48.234;13.006;2023-06-22T10:00:49;37.10;53.30
25616;DHT22;13482;48.234;13.006;2023-06-22T10:03:17;37.20;53.30
25616;DHT22;13482;48.234;13.006;2023-06-22T10:05:44;37.30;53.10
25616;DHT22;13482;48.234;13.006;2023-06-22T10:08:13;37.30;53.30
25616;DHT22;13482;48.234;13.006;2023-06-22T10:10:41;37.50;53.20
25616;DHT22;13482;48.234;13.006;2023-06-22T10:13:09;37.50;53.00
25616;DHT22;13482;48.234;13.006;2023-06-22T10:15:38;37.70;52.70
25616;DHT22;13482;48.234;13.006;2023-06-22T10:18:06;37.70;52.50
25616;DHT22;13482;48.234;13.006;2023-06-22T10:20:33;37.80;52.00
25616;DHT22;13482;48.234;13.006;2023-06-22T10:23:01;37.90;52.10
25616;DHT22;13482;48.234;13.006;2023-06-22T10:25:28;38.00;52.20
25616;DHT22;13482;48.234;13.006;2023-06-22T10:27:56;38.00;51.90
25616;DHT22;13482;48.234;13.006;2023-06-22T10:30:24;38.10;52.00
25616;DHT22;13482;48.234;13.006;2023-06-22T10:32:52;38.20;52.00
25616;DHT22;13482;48.234;13.006;2023-06-22T10:35:19;38.30;51.40
25616;DHT22;13482;48.234;13.006;2023-06-22T10:37:47;38.30;51.70
25616;DHT22;13482;48.234;13.006;2023-06-22T10:40:16;38.40;51.60
25616;DHT22;13482;48.234;13.006;2023-06-22T10:42:45;38.50;51.10
25616;DHT22;13482;48.234;13.006;2023-06-22T10:45:13;38.50;50.80
25616;DHT22;13482;48.234;13.006;2023-06-22T10:47:40;38.60;50.70
25616;DHT22;13482;48.234;13.006;2023-06-22T10:50:09;38.60;50.70
25616;DHT22;13482;48.234;13.006;2023-06-22T10:52:37;38.60;50.70
25616;DHT22;13482;48.234;13.006;2023-06-22T10:55:05;38.60;50.60
25616;DHT22;13482;48.234;13.006;2023-06-22T10:57:33;38.70;50.40
25616;DHT22;13482;48.234;13.006;2023-06-22T11:00:01;38.70;50.30
25616;DHT22;13482;48.234;13.006;2023-06-22T11:02:31;38.70;50.30
25616;DHT22;13482;48.234;13.006;2023-06-22T11:04:59;38.80;50.10
25616;DHT22;13482;48.234;13.006;2023-06-22T11:07:29;38.80;50.30
25616;DHT22;13482;48.234;13.006;2023-06-22T11:09:57;38.90;50.20
25616;DHT22;13482;48.234;13.006;2023-06-22T11:12:26;38.90;50.30
25616;DHT22;13482;48.234;13.006;2023-06-22T11:14:54;39.00;50.20
25616;DHT22;13482;48.234;13.006;2023-06-22T11:17:25;39.00;49.70
25616;DHT22;13482;48.234;13.006;2023-06-22T11:19:53;39.00;49.90
25616;DHT22;13482;48.234;13.006;2023-06-22T11:22:21;39.10;49.60
25616;DHT22;13482;48.234;13.006;2023-06-22T11:24:49;39.10;49.50
25616;DHT22;13482;48.234;13.006;2023-06-22T11:27:17;39.10;49.50
25616;DHT22;13482;48.234;13.006;2023-06-22T11:29:44;39.10;49.10
25616;DHT22;13482;48.234;13.006;2023-06-22T11:32:12;39.20;49.10
25616;DHT22;13482;48.234;13.006;2023-06-22T11:34:40;39.20;49.00
25616;DHT22;13482;48.234;13.006;2023-06-22T11:37:08;39.30;49.40
25616;DHT22;13482;48.234;13.006;2023-06-22T11:39:36;39.30;49.20
25616;DHT22;13482;48.234;13.006;2023-06-22T11:42:09;39.40;49.10
25616;DHT22;13482;48.234;13.006;2023-06-22T11:44:37;39.40;49.40
25616;DHT22;13482;48.234;13.006;2023-06-22T11:47:05;39.50;49.00
25616;DHT22;13482;48.234;13.006;2023-06-22T11:49:34;39.50;49.30
25616;DHT22;13482;48.234;13.006;2023-06-22T11:52:01;39.60;49.10
25616;DHT22;13482;48.234;13.006;2023-06-22T11:54:29;39.70;49.00
25616;DHT22;13482;48.234;13.006;2023-06-22T11:56:56;39.70;49.00
25616;DHT22;13482;48.234;13.006;2023-06-22T11:59:25;39.80;49.00
25616;DHT22;13482;48.234;13.006;2023-06-22T12:01:54;39.80;48.70
25616;DHT22;13482;48.234;13.006;2023-06-22T12:04:22;39.90;48.80
25616;DHT22;13482;48.234;13.006;2023-06-22T12:06:49;39.90;48.30
25616;DHT22;13482;48.234;13.006;2023-06-22T12:09:18;40.00;48.80
25616;DHT22;13482;48.234;13.006;2023-06-22T12:11:45;40.00;48.50
25616;DHT22;13482;48.234;13.006;2023-06-22T12:14:13;40.00;48.30
25616;DHT22;13482;48.234;13.006;2023-06-22T12:16:40;40.10;48.20
25616;DHT22;13482;48.234;13.006;2023-06-22T12:19:09;40.10;48.10
25616;DHT22;13482;48.234;13.006;2023-06-22T12:21:37;40.20;47.70
25616;DHT22;13482;48.234;13.006;2023-06-22T12:24:07;40.20;47.80
25616;DHT22;13482;48.234;13.006;2023-06-22T12:26:35;40.30;48.20
25616;DHT22;13482;48.234;13.006;2023-06-22T12:29:02;40.30;48.20
25616;DHT22;13482;48.234;13.006;2023-06-22T12:31:30;40.40;48.30
25616;DHT22;13482;48.234;13.006;2023-06-22T12:33:58;40.40;48.30
25616;DHT22;13482;48.234;13.006;2023-06-22T12:36:26;40.50;48.30
25616;DHT22;13482;48.234;13.006;2023-06-22T12:38:53;40.50;48.00
25616;DHT22;13482;48.234;13.006;2023-06-22T12:41:22;40.60;48.00
25616;DHT22;13482;48.234;13.006;2023-06-22T12:43:49;40.70;47.60
25616;DHT22;13482;48.234;13.006;2023-06-22T12:46:17;40.80;47.50
25616;DHT22;13482;48.234;13.006;2023-06-22T12:48:44;40.80;47.40
25616;DHT22;13482;48.234;13.006;2023-06-22T12:51:12;40.90;47.40
25616;DHT22;13482;48.234;13.006;2023-06-22T12:53:39;41.00;47.50
25616;DHT22;13482;48.234;13.006;2023-06-22T12:56:07;41.00;47.20
25616;DHT22;13482;48.234;13.006;2023-06-22T12:58:35;41.10;47.00
25616;DHT22;13482;48.234;13.006;2023-06-22T13:01:03;41.10;46.70
25616;DHT22;13482;48.234;13.006;2023-06-22T13:03:31;41.10;46.80
25616;DHT22;13482;48.234;13.006;2023-06-22T13:05:58;41.10;46.50
25616;DHT22;13482;48.234;13.006;2023-06-22T13:08:26;41.10;46.70
25616;DHT22;13482;48.234;13.006;2023-06-22T13:11:14;41.10;46.50
25616;DHT22;13482;48.234;13.006;2023-06-22T13:13:41;41.10;46.10
25616;DHT22;13482;48.234;13.006;2023-06-22T13:16:09;41.10;45.80
25616;DHT22;13482;48.234;13.006;2023-06-22T13:18:36;41.00;45.90
25616;DHT22;13482;48.234;13.006;2023-06-22T13:21:04;40.90;45.70
25616;DHT22;13482;48.234;13.006;2023-06-22T13:23:32;40.90;45.80
25616;DHT22;13482;48.234;13.006;2023-06-22T13:26:01;40.80;46.10
25616;DHT22;13482;48.234;13.006;2023-06-22T13:28:29;40.80;46.20
25616;DHT22;13482;48.234;13.006;2023-06-22T13:30:57;40.70;46.50
25616;DHT22;13482;48.234;13.006;2023-06-22T13:33:24;40.70;46.20
25616;DHT22;13482;48.234;13.006;2023-06-22T13:35:52;40.70;46.30
25616;DHT22;13482;48.234;13.006;2023-06-22T13:38:19;40.70;45.70
25616;DHT22;13482;48.234;13.006;2023-06-22T13:40:47;40.70;45.70
25616;DHT22;13482;48.234;13.006;2023-06-22T13:43:14;40.70;45.70
25616;DHT22;13482;48.234;13.006;2023-06-22T13:45:43;40.60;46.00
25616;DHT22;13482;48.234;13.006;2023-06-22T13:48:10;40.60;45.80
25616;DHT22;13482;48.234;13.006;2023-06-22T13:50:38;40.50;45.90
25616;DHT22;13482;48.234;13.006;2023-06-22T13:53:06;40.50;45.90
25616;DHT22;13482;48.234;13.006;2023-06-22T13:55:34;40.60;46.20
25616;DHT22;13482;48.234;13.006;2023-06-22T13:58:02;40.60;46.60
25616;DHT22;13482;48.234;13.006;2023-06-22T14:00:30;40.70;46.40
25616;DHT22;13482;48.234;13.006;2023-06-22T14:03:00;40.70;46.50
25616;DHT22;13482;48.234;13.006;2023-06-22T14:05:27;40.80;46.30
25616;DHT22;13482;48.234;13.006;2023-06-22T14:07:56;40.90;46.30
25616;DHT22;13482;48.234;13.006;2023-06-22T14:10:24;40.90;46.10
25616;DHT22;13482;48.234;13.006;2023-06-22T14:12:52;41.00;46.10
25616;DHT22;13482;48.234;13.006;2023-06-22T14:15:22;41.10;45.90
25616;DHT22;13482;48.234;13.006;2023-06-22T14:17:49;41.10;45.50
25616;DHT22;13482;48.234;13.006;2023-06-22T14:20:19;41.10;45.60
25616;DHT22;13482;48.234;13.006;2023-06-22T14:22:47;41.20;45.70
25616;DHT22;13482;48.234;13.006;2023-06-22T14:25:15;41.20;45.40
25616;DHT22;13482;48.234;13.006;2023-06-22T14:27:48;41.20;45.40
25616;DHT22;13482;48.234;13.006;2023-06-22T14:30:15;41.20;45.00
25616;DHT22;13482;48.234;13.006;2023-06-22T14:32:44;41.20;44.90
25616;DHT22;13482;48.234;13.006;2023-06-22T14:35:15;41.20;44.90
25616;DHT22;13482;48.234;13.006;2023-06-22T14:37:43;41.10;44.50
25616;DHT22;13482;48.234;13.006;2023-06-22T14:40:11;41.10;44.80
25616;DHT22;13482;48.234;13.006;2023-06-22T14:42:39;41.00;44.90
25616;DHT22;13482;48.234;13.006;2023-06-22T14:45:07;40.90;45.00
25616;DHT22;13482;48.234;13.006;2023-06-22T14:47:35;40.90;45.30
25616;DHT22;13482;48.234;13.006;2023-06-22T14:50:02;40.90;45.60
25616;DHT22;13482;48.234;13.006;2023-06-22T14:52:30;40.90;46.00
25616;DHT22;13482;48.234;13.006;2023-06-22T14:54:58;41.00;46.20
25616;DHT22;13482;48.234;13.006;2023-06-22T14:57:26;41.00;46.10
25616;DHT22;13482;48.234;13.006;2023-06-22T14:59:55;41.10;45.90
25616;DHT22;13482;48.234;13.006;2023-06-22T15:02:24;41.20;46.20
25616;DHT22;13482;48.234;13.006;2023-06-22T15:04:51;41.30;45.80
25616;DHT22;13482;48.234;13.006;2023-06-22T15:07:20;41.30;45.70
25616;DHT22;13482;48.234;13.006;2023-06-22T15:09:48;41.40;45.70
25616;DHT22;13482;48.234;13.006;2023-06-22T15:12:15;41.40;45.60
25616;DHT22;13482;48.234;13.006;2023-06-22T15:14:43;41.50;45.30
25616;DHT22;13482;48.234;13.006;2023-06-22T15:17:11;41.50;45.30
25616;DHT22;13482;48.234;13.006;2023-06-22T15:19:41;41.50;45.50
25616;DHT22;13482;48.234;13.006;2023-06-22T15:22:08;41.50;45.50
25616;DHT22;13482;48.234;13.006;2023-06-22T15:24:36;41.50;45.30
25616;DHT22;13482;48.234;13.006;2023-06-22T15:27:04;41.50;45.40
25616;DHT22;13482;48.234;13.006;2023-06-22T15:29:33;41.50;45.10